Terminal Aerodrome Forecast
Issued by NWS Sterling, VA

Home | Current Version | Previous Version | Text Only | Print | Product List | Glossary On
Versions: 1 2 3 4 5 6 7 8 9 10 11 12 13 14 15 16 17 18 19 20 21 22 23 24 25 26 27 28
000
FTUS41 KLWX 050526
TAFIAD
TAF
KIAD 050526Z 0506/0612 VRB04KT P6SM BKN200
     FM051500 29008G16KT P6SM FEW050
     FM060000 33005KT P6SM FEW200
     FM061100 36005KT P6SM BKN100=

USA.gov is the U.S. government's official web portal to all federal, state and local government web resources and services.